createdAt,value
2017-12-11T00:00:28.825Z,975.39
2017-12-11T00:02:41.634Z,975.36
2017-12-11T00:03:22.220Z,975.4
2017-12-11T00:04:02.845Z,975.39
2017-12-11T00:04:43.454Z,975.39
2017-12-11T00:05:24.018Z,975.38
2017-12-11T00:06:04.643Z,975.45
2017-12-11T00:06:45.218Z,975.49
2017-12-11T00:07:25.820Z,975.49
2017-12-11T00:08:06.398Z,975.5
2017-12-11T00:08:47.000Z,975.45
2017-12-11T00:09:27.587Z,975.44
2017-12-11T00:10:08.169Z,975.39
2017-12-11T00:10:48.719Z,975.38
2017-12-11T00:11:29.322Z,975.37
2017-12-11T00:12:09.853Z,975.36
2017-12-11T00:12:50.406Z,975.4
2017-12-11T00:13:30.996Z,975.31
2017-12-11T00:14:11.587Z,975.34
2017-12-11T00:14:52.181Z,975.32
2017-12-11T00:15:32.801Z,975.3
2017-12-11T00:16:13.405Z,975.29
2017-12-11T00:16:53.944Z,975.28
2017-12-11T00:17:34.579Z,975.34
2017-12-11T00:18:15.173Z,975.37
2017-12-11T00:18:55.784Z,975.36
2017-12-11T00:19:36.364Z,975.34
2017-12-11T00:20:16.965Z,975.35
2017-12-11T00:20:57.547Z,975.27
2017-12-11T00:21:38.160Z,975.26
2017-12-11T00:22:18.746Z,975.2
2017-12-11T00:22:59.321Z,975.21
2017-12-11T00:23:39.872Z,975.22
2017-12-11T00:24:20.438Z,975.16
2017-12-11T00:25:01.002Z,975.14
2017-12-11T00:25:41.627Z,975.12
2017-12-11T00:26:22.210Z,975.18
2017-12-11T00:27:02.820Z,975.15
2017-12-11T00:27:43.438Z,975.23
2017-12-11T00:28:24.040Z,975.25
2017-12-11T00:29:04.629Z,975.26
2017-12-11T00:29:45.194Z,975.24
2017-12-11T00:30:25.777Z,975.31
2017-12-11T00:31:06.374Z,975.29
2017-12-11T00:31:46.941Z,975.28
2017-12-11T00:32:27.518Z,975.28
2017-12-11T00:33:08.086Z,975.28
2017-12-11T00:33:48.654Z,975.23
2017-12-11T00:34:29.223Z,975.2
2017-12-11T00:35:09.795Z,975.19
2017-12-11T00:35:50.391Z,975.2
2017-12-11T00:36:30.987Z,975.17
2017-12-11T00:37:11.584Z,975.22
2017-12-11T00:37:52.168Z,975.18
2017-12-11T00:38:32.747Z,975.21
2017-12-11T00:39:13.317Z,975.25
2017-12-11T00:39:53.896Z,975.26
2017-12-11T00:40:34.470Z,975.24
2017-12-11T00:41:15.038Z,975.21
2017-12-11T00:41:55.621Z,975.19
2017-12-11T00:42:36.204Z,975.24
2017-12-11T00:43:16.775Z,975.27
2017-12-11T00:43:57.372Z,975.24
2017-12-11T00:44:37.944Z,975.24
2017-12-11T00:45:18.518Z,975.21
2017-12-11T00:45:59.109Z,975.2
2017-12-11T00:46:39.681Z,975.23
2017-12-11T00:47:20.283Z,975.21
2017-12-11T00:48:00.884Z,975.19
2017-12-11T00:48:41.514Z,975.24
2017-12-11T00:49:22.113Z,975.17
2017-12-11T00:50:02.683Z,975.2
2017-12-11T00:50:43.242Z,975.19
2017-12-11T00:51:23.821Z,975.16
2017-12-11T00:52:04.446Z,975.21
2017-12-11T00:52:45.019Z,975.2
2017-12-11T00:53:25.601Z,975.24
2017-12-11T00:54:06.196Z,975.25
2017-12-11T00:54:46.798Z,975.21
2017-12-11T00:55:27.359Z,975.19
2017-12-11T00:56:07.940Z,975.23
2017-12-11T00:56:48.514Z,975.18
2017-12-11T00:57:29.092Z,975.13
2017-12-11T00:58:09.661Z,975.15
2017-12-11T00:58:50.238Z,975.14
2017-12-11T00:59:30.831Z,975.14
2017-12-11T01:00:11.422Z,975.13
2017-12-11T01:00:52.002Z,975.2
2017-12-11T01:01:32.582Z,975.2
2017-12-11T01:02:13.172Z,975.24
2017-12-11T01:02:53.801Z,975.25
2017-12-11T01:03:34.436Z,975.28
2017-12-11T01:04:14.991Z,975.26
2017-12-11T01:04:55.538Z,975.25
2017-12-11T01:05:36.121Z,975.29
2017-12-11T01:06:16.694Z,975.3
2017-12-11T01:06:57.294Z,975.26
2017-12-11T01:07:37.899Z,975.29
2017-12-11T01:08:18.519Z,975.28
2017-12-11T01:08:59.102Z,975.26
2017-12-11T01:09:39.697Z,975.29
2017-12-11T01:10:20.308Z,975.27
2017-12-11T01:11:00.939Z,975.23
2017-12-11T01:11:41.510Z,975.22
2017-12-11T01:12:22.067Z,975.17
2017-12-11T01:13:02.646Z,975.18
2017-12-11T01:13:43.203Z,975.19
2017-12-11T01:14:23.811Z,975.24
2017-12-11T01:15:04.409Z,975.26
2017-12-11T01:15:44.997Z,975.25
2017-12-11T01:16:25.584Z,975.3
2017-12-11T01:17:06.183Z,975.25
2017-12-11T01:17:46.742Z,975.28
2017-12-11T01:18:27.351Z,975.28
2017-12-11T01:19:07.946Z,975.24
2017-12-11T01:19:48.519Z,975.24
2017-12-11T01:20:29.087Z,975.25
2017-12-11T01:21:09.653Z,975.27
2017-12-11T01:21:50.235Z,975.23
2017-12-11T01:22:30.810Z,975.23
2017-12-11T01:23:18.178Z,975.14
2017-12-11T01:23:58.759Z,975.19
2017-12-11T01:24:39.354Z,975.17
2017-12-11T01:25:19.927Z,975.22
2017-12-11T01:26:00.506Z,975.19
2017-12-11T01:26:41.092Z,975.16
2017-12-11T01:27:21.668Z,975.14
2017-12-11T01:28:02.233Z,975.19
2017-12-11T01:28:42.813Z,975.2
2017-12-11T01:29:23.411Z,975.18
2017-12-11T01:30:04.006Z,975.2
2017-12-11T01:30:44.581Z,975.18
2017-12-11T01:31:25.157Z,975.21
2017-12-11T01:32:05.732Z,975.16
2017-12-11T01:32:46.323Z,975.15
2017-12-11T01:33:26.925Z,975.13
2017-12-11T01:34:07.485Z,975.14
2017-12-11T01:34:48.063Z,975.21
2017-12-11T01:35:28.638Z,975.22
2017-12-11T01:36:09.299Z,975.21
2017-12-11T01:36:49.894Z,975.21
2017-12-11T01:37:30.462Z,975.23
2017-12-11T01:38:11.037Z,975.19
2017-12-11T01:38:51.597Z,975.25
2017-12-11T01:39:32.180Z,975.25
2017-12-11T01:40:12.765Z,975.18
2017-12-11T01:40:53.366Z,975.24
2017-12-11T01:41:33.966Z,975.25
2017-12-11T01:42:14.545Z,975.25
2017-12-11T01:42:55.140Z,975.19
2017-12-11T01:43:35.721Z,975.23
2017-12-11T01:44:16.314Z,975.22
2017-12-11T01:44:56.881Z,975.21
2017-12-11T01:45:37.458Z,975.23
2017-12-11T01:46:18.067Z,975.28
2017-12-11T01:46:58.674Z,975.28
2017-12-11T01:47:39.273Z,975.25
2017-12-11T01:48:19.839Z,975.23
2017-12-11T01:49:00.414Z,975.25
2017-12-11T01:49:41.017Z,975.27
2017-12-11T01:50:21.636Z,975.28
2017-12-11T01:51:02.217Z,975.28
2017-12-11T01:51:42.845Z,975.35
2017-12-11T01:52:23.351Z,975.32
2017-12-11T01:53:04.011Z,975.29
2017-12-11T01:53:44.592Z,975.34
2017-12-11T01:54:25.173Z,975.35
2017-12-11T01:55:05.746Z,975.34
2017-12-11T01:55:46.352Z,975.4
2017-12-11T01:56:26.953Z,975.4
2017-12-11T01:57:07.551Z,975.38
2017-12-11T01:57:48.155Z,975.45
2017-12-11T01:58:28.756Z,975.42
2017-12-11T01:59:09.313Z,975.45
2017-12-11T01:59:49.911Z,975.41
2017-12-11T02:00:30.435Z,975.36
2017-12-11T02:01:11.039Z,975.42
2017-12-11T02:01:51.638Z,975.39
2017-12-11T02:02:32.207Z,975.39
2017-12-11T02:03:12.773Z,975.41
2017-12-11T02:03:53.351Z,975.38
2017-12-11T02:04:33.918Z,975.37
2017-12-11T02:05:14.485Z,975.37
2017-12-11T02:05:55.061Z,975.41
2017-12-11T02:06:35.641Z,975.42
2017-12-11T02:07:16.222Z,975.37
2017-12-11T02:07:56.831Z,975.44
2017-12-11T02:08:37.395Z,975.44
2017-12-11T02:09:17.967Z,975.42
2017-12-11T02:09:58.574Z,975.44
2017-12-11T02:10:39.171Z,975.47
2017-12-11T02:11:19.764Z,975.52
2017-12-11T02:12:00.363Z,975.53
2017-12-11T02:12:40.996Z,975.55
2017-12-11T02:13:21.569Z,975.6
2017-12-11T02:14:02.207Z,975.6
2017-12-11T02:14:42.731Z,975.59
2017-12-11T02:15:23.322Z,975.58
2017-12-11T02:16:03.890Z,975.59
2017-12-11T02:16:44.469Z,975.61
2017-12-11T02:17:25.050Z,975.63
2017-12-11T02:18:05.641Z,975.64
2017-12-11T02:18:46.211Z,975.63
2017-12-11T02:19:26.775Z,975.66
2017-12-11T02:20:07.349Z,975.65
2017-12-11T02:20:47.910Z,975.67
2017-12-11T02:21:28.490Z,975.7
2017-12-11T02:22:09.062Z,975.65
2017-12-11T02:22:49.647Z,975.65
2017-12-11T02:23:30.223Z,975.68
2017-12-11T02:24:10.799Z,975.74
2017-12-11T02:24:51.424Z,975.67
2017-12-11T02:25:32.001Z,975.71
2017-12-11T02:26:12.588Z,975.66
2017-12-11T02:26:53.165Z,975.71
2017-12-11T02:27:33.741Z,975.71
2017-12-11T02:28:14.310Z,975.75
2017-12-11T02:28:54.875Z,975.77
2017-12-11T02:29:35.505Z,975.77
2017-12-11T02:30:16.090Z,975.8
2017-12-11T02:30:56.682Z,975.8
2017-12-11T02:31:37.256Z,975.82
2017-12-11T02:32:17.855Z,975.84
2017-12-11T02:32:58.451Z,975.83
2017-12-11T02:33:39.020Z,975.86
2017-12-11T02:34:19.596Z,975.87
2017-12-11T02:35:00.188Z,975.91
2017-12-11T02:35:40.791Z,975.89
2017-12-11T02:36:21.381Z,975.87
2017-12-11T02:37:02.000Z,975.98
2017-12-11T02:37:42.592Z,975.96
2017-12-11T02:38:23.171Z,975.94
2017-12-11T02:39:03.757Z,975.95
2017-12-11T02:39:44.380Z,975.98
2017-12-11T02:40:24.993Z,975.95
2017-12-11T02:41:05.571Z,975.92
2017-12-11T02:41:46.139Z,975.88
2017-12-11T02:42:26.699Z,975.9
2017-12-11T02:43:07.269Z,975.92
2017-12-11T02:43:47.851Z,975.87
2017-12-11T02:44:28.441Z,975.88
2017-12-11T02:45:09.066Z,975.88
2017-12-11T02:45:49.642Z,975.9
2017-12-11T02:46:30.268Z,975.95
2017-12-11T02:47:10.923Z,975.84
2017-12-11T02:47:51.515Z,975.83
2017-12-11T02:48:32.077Z,975.89
2017-12-11T02:49:12.641Z,975.81
2017-12-11T02:49:53.254Z,975.83
2017-12-11T02:50:33.839Z,975.85
2017-12-11T02:51:14.466Z,975.81
2017-12-11T02:51:55.093Z,975.83
2017-12-11T02:52:35.688Z,975.81
2017-12-11T02:53:16.279Z,975.83
2017-12-11T02:53:56.838Z,975.93
2017-12-11T02:54:37.432Z,975.93
2017-12-11T02:55:18.060Z,976
2017-12-11T02:55:58.662Z,975.96
2017-12-11T02:56:39.250Z,975.94
2017-12-11T02:57:19.826Z,976.01
2017-12-11T02:58:00.410Z,976
2017-12-11T02:58:40.975Z,976
2017-12-11T02:59:21.533Z,976.04
2017-12-11T03:00:02.114Z,975.94
2017-12-11T03:00:42.705Z,975.95
2017-12-11T03:01:23.287Z,975.97
2017-12-11T03:02:03.861Z,976.01
2017-12-11T03:02:44.450Z,976.02
2017-12-11T03:03:25.037Z,976.04
2017-12-11T03:04:05.615Z,976.04
2017-12-11T03:04:46.213Z,976.07
2017-12-11T03:05:26.783Z,976.09
2017-12-11T03:06:07.391Z,976.09
2017-12-11T03:06:47.985Z,976.07
2017-12-11T03:07:28.553Z,976.06
2017-12-11T03:08:09.141Z,976.11
2017-12-11T03:08:49.739Z,976.09
2017-12-11T03:09:30.310Z,976.12
2017-12-11T03:10:10.884Z,976.07
2017-12-11T03:10:51.442Z,976.06
2017-12-11T03:11:32.000Z,976.02
2017-12-11T03:12:12.587Z,976.02
2017-12-11T03:12:53.175Z,976.02
2017-12-11T03:13:33.733Z,976.03
2017-12-11T03:14:14.302Z,976.06
2017-12-11T03:14:54.898Z,976.06
2017-12-11T03:15:35.460Z,976.06
2017-12-11T03:16:16.055Z,976.09
2017-12-11T03:16:56.613Z,976.05
2017-12-11T03:17:37.196Z,975.99
2017-12-11T03:18:17.761Z,976.03
2017-12-11T03:18:58.316Z,976.03
2017-12-11T03:19:38.884Z,976.05
2017-12-11T03:20:19.463Z,976.01
2017-12-11T03:21:00.060Z,976.07
2017-12-11T03:21:40.673Z,976.05
2017-12-11T03:22:21.236Z,976.07
2017-12-11T03:23:01.834Z,976.02
2017-12-11T03:23:42.435Z,976.03
2017-12-11T03:24:23.035Z,976.05
2017-12-11T03:25:03.609Z,976.1
2017-12-11T03:25:44.198Z,976.04
2017-12-11T03:26:24.753Z,976.07
2017-12-11T03:27:05.325Z,976.06
2017-12-11T03:27:45.898Z,976.05
2017-12-11T03:28:26.460Z,976.06
2017-12-11T03:29:07.043Z,975.97
2017-12-11T03:29:47.610Z,975.97
2017-12-11T03:30:28.186Z,976.03
2017-12-11T03:31:08.758Z,975.96
2017-12-11T03:31:49.322Z,976
2017-12-11T03:32:29.880Z,976.05
2017-12-11T03:33:10.460Z,976.05
2017-12-11T03:33:51.040Z,976.1
2017-12-11T03:34:31.611Z,976.06
2017-12-11T03:35:12.177Z,976.06
2017-12-11T03:35:52.757Z,976.11
2017-12-11T03:36:33.313Z,976.09
2017-12-11T03:37:13.904Z,976.13
2017-12-11T03:37:54.577Z,976.17
2017-12-11T03:38:35.163Z,976.17
2017-12-11T03:39:15.726Z,976.2
2017-12-11T03:39:56.310Z,976.2
2017-12-11T03:40:36.895Z,976.26
2017-12-11T03:41:17.513Z,976.27
2017-12-11T03:41:58.103Z,976.26
2017-12-11T03:42:38.676Z,976.27
2017-12-11T03:43:19.261Z,976.31
2017-12-11T03:43:59.820Z,976.35
2017-12-11T03:44:40.393Z,976.3
2017-12-11T03:45:20.970Z,976.39
2017-12-11T03:46:01.544Z,976.46
2017-12-11T03:46:42.121Z,976.46
2017-12-11T03:47:22.703Z,976.46
2017-12-11T03:48:03.316Z,976.5
2017-12-11T03:48:43.891Z,976.48
2017-12-11T03:49:24.455Z,976.52
2017-12-11T03:50:05.019Z,976.51
2017-12-11T03:50:45.611Z,976.54
2017-12-11T03:51:26.216Z,976.6
2017-12-11T03:52:06.780Z,976.54
2017-12-11T03:52:47.359Z,976.62
2017-12-11T03:53:27.924Z,976.72
2017-12-11T03:54:08.486Z,976.65
2017-12-11T03:54:49.060Z,976.62
2017-12-11T03:55:29.681Z,976.73
2017-12-11T03:56:10.264Z,976.71
2017-12-11T03:56:50.826Z,976.7
2017-12-11T03:57:31.398Z,976.73
2017-12-11T03:58:11.972Z,976.74
2017-12-11T03:58:52.536Z,976.65
2017-12-11T03:59:33.151Z,976.69
2017-12-11T04:00:13.737Z,976.67
2017-12-11T04:00:54.306Z,976.64
2017-12-11T04:01:34.897Z,976.63
2017-12-11T04:02:15.449Z,976.58
2017-12-11T04:02:56.048Z,976.66
2017-12-11T04:03:36.631Z,976.66
2017-12-11T04:04:17.198Z,976.65
2017-12-11T04:04:57.805Z,976.65
2017-12-11T04:05:38.384Z,976.63
2017-12-11T04:06:18.964Z,976.7
2017-12-11T04:06:59.535Z,976.76
2017-12-11T04:07:40.120Z,976.8
2017-12-11T04:08:20.699Z,976.91
2017-12-11T04:09:01.312Z,976.92
2017-12-11T04:09:41.863Z,976.97
2017-12-11T04:10:22.456Z,977.02
2017-12-11T04:11:03.065Z,977.05
2017-12-11T04:11:43.626Z,977.14
2017-12-11T04:12:24.222Z,977.14
2017-12-11T04:13:04.813Z,977.21
2017-12-11T04:13:45.389Z,977.2
2017-12-11T04:14:26.024Z,977.29
2017-12-11T04:15:06.575Z,977.38
2017-12-11T04:15:47.284Z,977.33
2017-12-11T04:16:27.902Z,977.41
2017-12-11T04:17:08.537Z,977.41
2017-12-11T04:17:49.133Z,977.47
2017-12-11T04:18:29.722Z,977.46
2017-12-11T04:19:10.301Z,977.59
2017-12-11T04:19:50.901Z,977.58
2017-12-11T04:20:31.465Z,977.59
2017-12-11T04:21:12.058Z,977.64
2017-12-11T04:21:52.663Z,977.64
2017-12-11T04:22:33.230Z,977.65
2017-12-11T04:23:13.818Z,977.65
2017-12-11T04:23:54.400Z,977.81
2017-12-11T04:24:34.968Z,977.8
2017-12-11T04:25:15.571Z,977.85
2017-12-11T04:25:56.125Z,977.86
2017-12-11T04:26:36.719Z,977.97
2017-12-11T04:27:17.326Z,977.97
2017-12-11T04:27:57.987Z,978.03
2017-12-11T04:28:38.534Z,978.02
2017-12-11T04:29:19.107Z,978.06
2017-12-11T04:29:59.684Z,978.08
2017-12-11T04:30:40.248Z,978.14
2017-12-11T04:31:20.837Z,978.07
2017-12-11T04:32:01.406Z,978.17
2017-12-11T04:32:42.009Z,978.21
2017-12-11T04:33:22.607Z,978.23
2017-12-11T04:34:03.193Z,978.22
2017-12-11T04:34:43.812Z,978.22
2017-12-11T04:35:24.405Z,978.27
2017-12-11T04:36:04.997Z,978.32
2017-12-11T04:36:45.569Z,978.32
2017-12-11T04:37:26.139Z,978.31
2017-12-11T04:38:06.710Z,978.41
2017-12-11T04:38:47.318Z,978.41
2017-12-11T04:39:27.942Z,978.4
2017-12-11T04:40:08.521Z,978.41
2017-12-11T04:40:49.115Z,978.42
2017-12-11T04:41:29.680Z,978.46
2017-12-11T04:42:10.252Z,978.52
2017-12-11T04:42:50.828Z,978.48
2017-12-11T04:43:31.423Z,978.52
2017-12-11T04:44:12.025Z,978.58
2017-12-11T04:44:52.614Z,978.58
2017-12-11T04:45:33.230Z,978.53
2017-12-11T04:46:13.776Z,978.56
2017-12-11T04:46:54.360Z,978.66
2017-12-11T04:47:34.935Z,978.66
2017-12-11T04:48:15.512Z,978.64
2017-12-11T04:48:56.083Z,978.62
2017-12-11T04:49:36.684Z,978.71
2017-12-11T04:50:17.292Z,978.73
2017-12-11T04:50:57.881Z,978.76
2017-12-11T04:51:38.444Z,978.76
2017-12-11T04:52:19.011Z,978.81
2017-12-11T04:52:59.601Z,978.84
2017-12-11T04:53:40.179Z,978.86
2017-12-11T04:54:20.800Z,978.87
2017-12-11T04:55:01.398Z,978.87
2017-12-11T04:55:41.961Z,978.9
2017-12-11T04:56:22.551Z,978.99
2017-12-11T04:57:03.139Z,979.02
2017-12-11T04:57:43.714Z,979.04
2017-12-11T04:58:24.298Z,979.14
2017-12-11T04:59:04.888Z,979.2
2017-12-11T04:59:45.456Z,979.22
2017-12-11T05:00:26.031Z,979.22
2017-12-11T05:01:06.610Z,979.25
2017-12-11T05:01:47.205Z,979.26
2017-12-11T05:02:27.815Z,979.3
2017-12-11T05:03:08.390Z,979.23
2017-12-11T05:03:49.018Z,979.33
2017-12-11T05:04:29.603Z,979.38
2017-12-11T05:05:10.192Z,979.35
2017-12-11T05:05:50.764Z,979.32
2017-12-11T05:06:31.347Z,979.3
2017-12-11T05:07:11.932Z,979.31
2017-12-11T05:07:52.509Z,979.28
2017-12-11T05:08:33.079Z,979.29
2017-12-11T05:09:13.644Z,979.2
2017-12-11T05:09:54.214Z,979.32
2017-12-11T05:10:34.796Z,979.32
2017-12-11T05:11:15.384Z,979.33
2017-12-11T05:11:55.965Z,979.36
2017-12-11T05:12:36.577Z,979.39
2017-12-11T05:13:17.171Z,979.38
2017-12-11T05:13:57.768Z,979.48
2017-12-11T05:14:38.341Z,979.45
2017-12-11T05:15:18.938Z,979.52
2017-12-11T05:15:59.513Z,979.56
2017-12-11T05:16:40.122Z,979.64
2017-12-11T05:17:20.698Z,979.6
2017-12-11T05:18:01.341Z,979.6
2017-12-11T05:18:41.930Z,979.64
2017-12-11T05:19:22.486Z,979.6
2017-12-11T05:20:03.098Z,979.6
2017-12-11T05:20:43.689Z,979.68
2017-12-11T05:21:24.299Z,979.7
2017-12-11T05:22:04.898Z,979.72
2017-12-11T05:22:45.463Z,979.77
2017-12-11T05:23:26.044Z,979.75
2017-12-11T05:24:06.640Z,979.77
2017-12-11T05:24:47.696Z,979.77
2017-12-11T05:25:28.266Z,979.78
2017-12-11T05:26:08.832Z,979.79
2017-12-11T05:26:49.396Z,979.72
2017-12-11T05:27:29.980Z,979.81
2017-12-11T05:28:10.536Z,979.77
2017-12-11T05:28:51.135Z,979.83
2017-12-11T05:29:31.686Z,979.8
2017-12-11T05:30:12.248Z,979.84
2017-12-11T05:30:52.849Z,979.83
2017-12-11T05:31:33.454Z,979.84
2017-12-11T05:32:14.044Z,979.84
2017-12-11T05:32:54.680Z,979.85
2017-12-11T05:33:35.231Z,979.89
2017-12-11T05:34:15.868Z,979.82
2017-12-11T05:34:56.451Z,979.91
2017-12-11T05:35:37.021Z,979.82
2017-12-11T05:36:17.585Z,979.86
2017-12-11T05:36:58.145Z,979.79
2017-12-11T05:37:38.708Z,979.82
2017-12-11T05:38:19.304Z,979.87
2017-12-11T05:38:59.898Z,979.89
2017-12-11T05:39:40.457Z,979.84
2017-12-11T05:40:21.037Z,979.87
2017-12-11T05:41:01.634Z,979.83
2017-12-11T05:41:42.204Z,979.76
2017-12-11T05:42:22.776Z,979.76
2017-12-11T05:43:03.349Z,979.75
2017-12-11T05:43:43.911Z,979.74
2017-12-11T05:44:24.476Z,979.68
2017-12-11T05:45:05.037Z,979.66
2017-12-11T05:45:45.610Z,979.69
2017-12-11T05:46:26.204Z,979.69
2017-12-11T05:47:06.765Z,979.64
2017-12-11T05:47:47.328Z,979.66
2017-12-11T05:48:27.912Z,979.7
2017-12-11T05:49:08.547Z,979.67
2017-12-11T05:49:49.126Z,979.59
2017-12-11T05:50:29.687Z,979.59
2017-12-11T05:51:10.263Z,979.55
2017-12-11T05:51:50.855Z,979.61
2017-12-11T05:52:31.446Z,979.57
2017-12-11T05:53:12.037Z,979.63
2017-12-11T05:53:52.618Z,979.65
2017-12-11T05:54:33.189Z,979.66
2017-12-11T05:55:13.757Z,979.68
2017-12-11T05:55:54.363Z,979.68
2017-12-11T05:56:34.977Z,979.71
2017-12-11T05:57:15.556Z,979.7
2017-12-11T05:57:56.161Z,979.69
2017-12-11T05:58:36.780Z,979.74
2017-12-11T05:59:17.364Z,979.85
2017-12-11T05:59:57.948Z,979.87
2017-12-11T06:00:38.537Z,979.91
2017-12-11T06:01:19.125Z,979.94
2017-12-11T06:01:59.705Z,979.98
2017-12-11T06:02:40.288Z,979.99
2017-12-11T06:03:20.853Z,979.99
2017-12-11T06:04:01.445Z,980.01
2017-12-11T06:04:42.038Z,980.1
2017-12-11T06:05:22.596Z,980.08
2017-12-11T06:06:03.226Z,980.08
2017-12-11T06:06:43.799Z,980.13
2017-12-11T06:07:24.389Z,980.19
2017-12-11T06:08:04.948Z,980.15
2017-12-11T06:08:45.552Z,980.17
2017-12-11T06:09:26.138Z,980.18
2017-12-11T06:10:06.724Z,980.16
2017-12-11T06:10:47.306Z,980.14
2017-12-11T06:11:27.904Z,980.15
2017-12-11T06:12:08.488Z,980.13
2017-12-11T06:12:49.059Z,980.16
2017-12-11T06:13:29.661Z,980.15
2017-12-11T06:14:10.259Z,980.1
2017-12-11T06:14:50.849Z,980.12
2017-12-11T06:15:31.422Z,980.12
2017-12-11T06:16:11.996Z,980.23
2017-12-11T06:16:52.578Z,980.23
2017-12-11T06:17:33.159Z,980.27
2017-12-11T06:18:13.722Z,980.32
2017-12-11T06:18:54.305Z,980.31
2017-12-11T06:19:34.872Z,980.37
2017-12-11T06:20:15.432Z,980.38
2017-12-11T06:20:55.983Z,980.38
2017-12-11T06:21:36.544Z,980.43
2017-12-11T06:22:17.132Z,980.4
2017-12-11T06:22:57.720Z,980.42
2017-12-11T06:23:38.309Z,980.47
2017-12-11T06:24:18.896Z,980.5
2017-12-11T06:24:59.498Z,980.48
2017-12-11T06:25:40.080Z,980.54
2017-12-11T06:26:20.645Z,980.59
2017-12-11T06:27:01.229Z,980.64
2017-12-11T06:27:41.813Z,980.64
2017-12-11T06:28:22.385Z,980.69
2017-12-11T06:29:02.956Z,980.73
2017-12-11T06:29:43.523Z,980.79
2017-12-11T06:30:24.120Z,980.82
2017-12-11T06:31:04.710Z,980.82
2017-12-11T06:31:45.335Z,980.85
2017-12-11T06:32:25.980Z,980.87
2017-12-11T06:33:06.533Z,980.88
2017-12-11T06:33:47.097Z,980.92
2017-12-11T06:34:27.684Z,981
2017-12-11T06:35:08.260Z,980.95
2017-12-11T06:35:48.837Z,981.03
2017-12-11T06:36:29.411Z,981.01
2017-12-11T06:37:09.975Z,981.01
2017-12-11T06:37:50.552Z,981
2017-12-11T06:38:31.113Z,981.05
2017-12-11T06:39:11.688Z,981.02
2017-12-11T06:39:52.291Z,981.1
2017-12-11T06:40:32.858Z,981.07
2017-12-11T06:41:13.416Z,981.1
2017-12-11T06:41:54.030Z,981.15
2017-12-11T06:42:34.611Z,981.19
2017-12-11T06:43:15.205Z,981.27
2017-12-11T06:43:55.805Z,981.29
2017-12-11T06:44:36.400Z,981.25
2017-12-11T06:45:16.975Z,981.29
2017-12-11T06:45:57.546Z,981.32
2017-12-11T06:46:38.129Z,981.28
2017-12-11T06:47:18.810Z,981.29
2017-12-11T06:47:59.460Z,981.32
2017-12-11T06:48:40.048Z,981.33
2017-12-11T06:49:20.622Z,981.29
2017-12-11T06:50:01.289Z,981.44
2017-12-11T06:50:42.116Z,981.44
2017-12-11T06:51:22.700Z,981.48
2017-12-11T06:52:03.282Z,981.47
2017-12-11T06:52:43.849Z,981.52
2017-12-11T06:53:24.672Z,981.53
2017-12-11T06:54:05.917Z,981.51
2017-12-11T06:54:46.302Z,981.54
2017-12-11T06:55:26.907Z,981.54
2017-12-11T06:56:07.519Z,981.55
2017-12-11T06:56:48.202Z,981.51
2017-12-11T06:57:28.854Z,981.49
2017-12-11T06:58:09.594Z,981.51
2017-12-11T06:58:50.447Z,981.45
2017-12-11T06:59:31.103Z,981.45
2017-12-11T07:00:11.681Z,981.49
2017-12-11T07:00:52.271Z,981.46
2017-12-11T07:01:32.863Z,981.52
2017-12-11T07:02:13.530Z,981.56
2017-12-11T07:02:54.183Z,981.48
2017-12-11T07:03:34.755Z,981.49
2017-12-11T07:04:15.388Z,981.44
2017-12-11T07:04:56.007Z,981.44
2017-12-11T07:05:36.607Z,981.44
2017-12-11T07:06:17.240Z,981.42
2017-12-11T07:06:57.824Z,981.43
2017-12-11T07:07:38.437Z,981.44
2017-12-11T07:08:19.032Z,981.44
2017-12-11T07:08:59.584Z,981.39
2017-12-11T07:09:40.206Z,981.43
2017-12-11T07:10:20.834Z,981.42
2017-12-11T07:11:01.746Z,981.42
2017-12-11T07:11:42.361Z,981.44
2017-12-11T07:12:22.946Z,981.44
2017-12-11T07:13:03.536Z,981.45
2017-12-11T07:13:44.116Z,981.48
2017-12-11T07:14:24.686Z,981.51
2017-12-11T07:15:05.326Z,981.53
2017-12-11T07:15:45.915Z,981.5
2017-12-11T07:16:26.617Z,981.58
2017-12-11T07:17:07.167Z,981.58
2017-12-11T07:17:47.737Z,981.63
2017-12-11T07:18:28.313Z,981.65
2017-12-11T07:19:08.943Z,981.64
2017-12-11T07:19:49.559Z,981.62
2017-12-11T07:20:30.218Z,981.65
2017-12-11T07:21:10.777Z,981.67
2017-12-11T07:21:51.377Z,981.67
2017-12-11T07:22:31.984Z,981.7
2017-12-11T07:23:12.582Z,981.73
2017-12-11T07:23:53.163Z,981.75
2017-12-11T07:24:33.770Z,981.83
2017-12-11T07:25:14.341Z,981.83
2017-12-11T07:25:54.951Z,981.88
2017-12-11T07:26:35.533Z,981.92
2017-12-11T07:27:16.107Z,981.85
2017-12-11T07:27:56.790Z,981.95
2017-12-11T07:28:37.360Z,981.96
2017-12-11T07:29:17.938Z,981.96
2017-12-11T07:29:58.567Z,981.91
2017-12-11T07:30:39.303Z,981.99
2017-12-11T07:31:19.897Z,982
2017-12-11T07:32:00.500Z,981.96
2017-12-11T07:32:41.092Z,981.95
2017-12-11T07:33:21.677Z,981.99
2017-12-11T07:34:02.269Z,981.98
2017-12-11T07:34:42.880Z,981.92
2017-12-11T07:35:23.463Z,981.99
2017-12-11T07:36:04.061Z,981.97
2017-12-11T07:36:44.663Z,981.95
2017-12-11T07:37:25.266Z,981.91
2017-12-11T07:38:05.862Z,981.96
2017-12-11T07:38:46.453Z,981.92
2017-12-11T07:39:27.050Z,981.98
2017-12-11T07:40:07.614Z,981.96
2017-12-11T07:40:48.354Z,981.96
2017-12-11T07:41:28.917Z,981.97
2017-12-11T07:42:09.535Z,981.97
2017-12-11T07:42:50.112Z,981.92
2017-12-11T07:43:30.681Z,981.92
2017-12-11T07:44:11.286Z,981.88
2017-12-11T07:44:51.875Z,981.86
2017-12-11T07:45:32.516Z,981.88
2017-12-11T07:46:13.102Z,981.85
2017-12-11T07:46:53.690Z,981.89
2017-12-11T07:47:34.273Z,981.87
2017-12-11T07:48:14.837Z,981.9
2017-12-11T07:48:55.444Z,981.85
2017-12-11T07:49:36.045Z,981.91
2017-12-11T07:50:16.618Z,981.93
2017-12-11T07:50:57.194Z,981.93
2017-12-11T07:51:37.762Z,982
2017-12-11T07:52:18.383Z,981.96
2017-12-11T07:52:59.064Z,981.98
2017-12-11T07:53:39.653Z,981.99
2017-12-11T07:54:20.274Z,981.98
2017-12-11T07:55:00.911Z,981.96
2017-12-11T07:55:41.481Z,981.93
2017-12-11T07:56:22.069Z,981.86
2017-12-11T07:57:02.645Z,981.87
2017-12-11T07:57:43.213Z,981.95
2017-12-11T07:58:23.779Z,981.92
2017-12-11T07:59:04.372Z,981.96
2017-12-11T07:59:44.974Z,982.02
2017-12-11T08:00:25.574Z,982.03
2017-12-11T08:01:06.159Z,982.09
2017-12-11T08:01:46.738Z,982.12
2017-12-11T08:02:27.331Z,982.11
2017-12-11T08:03:07.933Z,982.16
2017-12-11T08:03:48.528Z,982.12
2017-12-11T08:04:29.239Z,982.13
2017-12-11T08:05:09.832Z,982.16
2017-12-11T08:05:50.430Z,982.18
2017-12-11T08:06:30.988Z,982.19
2017-12-11T08:07:11.570Z,982.2
2017-12-11T08:07:52.137Z,982.23
2017-12-11T08:08:32.704Z,982.22
2017-12-11T08:09:13.284Z,982.17
2017-12-11T08:09:53.848Z,982.15
2017-12-11T08:10:34.418Z,982.2
2017-12-11T08:11:15.017Z,982.2
2017-12-11T08:11:55.615Z,982.23
2017-12-11T08:12:36.210Z,982.24
2017-12-11T08:13:16.782Z,982.27
2017-12-11T08:13:57.379Z,982.28
2017-12-11T08:14:37.961Z,982.3
2017-12-11T08:15:18.543Z,982.27
2017-12-11T08:15:59.149Z,982.28
2017-12-11T08:16:39.756Z,982.31
2017-12-11T08:17:20.364Z,982.31
2017-12-11T08:18:00.933Z,982.33
2017-12-11T08:18:41.518Z,982.3
2017-12-11T08:19:22.362Z,982.28
2017-12-11T08:20:02.961Z,982.26
2017-12-11T08:20:43.551Z,982.24
2017-12-11T08:21:24.159Z,982.28
2017-12-11T08:22:04.729Z,982.3
2017-12-11T08:22:45.334Z,982.32
2017-12-11T08:23:25.919Z,982.31
2017-12-11T08:24:06.552Z,982.3
2017-12-11T08:24:47.115Z,982.32
2017-12-11T08:25:27.708Z,982.35
2017-12-11T08:26:08.287Z,982.33
2017-12-11T08:26:48.870Z,982.31
2017-12-11T08:27:29.434Z,982.34
2017-12-11T08:28:10.010Z,982.35
2017-12-11T08:28:50.594Z,982.44
2017-12-11T08:29:31.175Z,982.47
2017-12-11T08:30:11.751Z,982.46